Terminal Aerodrome Forecast
Issued by NWS

Home | Current Version | Previous Version | Text Only | Print | Product List | Glossary On
Versions: 1 2 3 4 5 6 7 8 9 10 11 12 13 14 15 16
000
FTUS46 KLOX 211700
TAFSBA
TAF
KSBA 211724Z 2118/2218 00000KT P6SM SKC
     FM212200 24008KT P6SM SKC
     FM220100 VRB03KT P6SM SKC WS015/36025KT
     FM220900 VRB03KT P6SM SKC=

USA.gov is the U.S. government's official web portal to all federal, state and local government web resources and services.